sensor_id;sensor_type;location;lat;lon;timestamp;pressure;altitude;pressure_sealevel;temperature;humidity
7930;BME280;4010;42.698;23.124;2023-04-21T00:01:17;118349.16;;;-140.64;99.83
7930;BME280;4010;42.698;23.124;2023-04-21T00:03:44;118349.16;;;-140.64;100.00
7930;BME280;4010;42.698;23.124;2023-04-21T00:06:12;118349.16;;;-140.64;99.72
7930;BME280;4010;42.698;23.124;2023-04-21T00:08:39;118349.16;;;-140.64;100.00
7930;BME280;4010;42.698;23.124;2023-04-21T00:11:07;118349.16;;;-140.64;100.00
7930;BME280;4010;42.698;23.124;2023-04-21T00:13:34;118349.16;;;-140.64;100.00
7930;BME280;4010;42.698;23.124;2023-04-21T00:16:01;118349.16;;;-140.64;100.00
7930;BME280;4010;42.698;23.124;2023-04-21T00:18:28;118349.16;;;-140.64;100.00
7930;BME280;4010;42.698;23.124;2023-04-21T00:20:54;118349.16;;;-140.64;100.00
7930;BME280;4010;42.698;23.124;2023-04-21T00:23:21;118349.16;;;-140.64;100.00
7930;BME280;4010;42.698;23.124;2023-04-21T00:25:48;118349.16;;;-140.64;100.00
7930;BME280;4010;42.698;23.124;2023-04-21T00:28:16;118349.16;;;-140.64;100.00
7930;BME280;4010;42.698;23.124;2023-04-21T00:30:43;118349.16;;;-140.64;100.00
7930;BME280;4010;42.698;23.124;2023-04-21T00:33:10;118349.16;;;-140.64;100.00
7930;BME280;4010;42.698;23.124;2023-04-21T00:35:36;118349.16;;;-140.64;100.00
7930;BME280;4010;42.698;23.124;2023-04-21T00:38:03;118349.16;;;-140.64;100.00
7930;BME280;4010;42.698;23.124;2023-04-21T00:40:29;118349.16;;;-140.64;100.00
7930;BME280;4010;42.698;23.124;2023-04-21T00:42:56;118349.16;;;-140.64;100.00
7930;BME280;4010;42.698;23.124;2023-04-21T00:45:24;118349.16;;;-140.64;100.00
7930;BME280;4010;42.698;23.124;2023-04-21T00:47:51;118349.16;;;-140.64;100.00
7930;BME280;4010;42.698;23.124;2023-04-21T00:50:18;118349.16;;;-140.64;100.00
7930;BME280;4010;42.698;23.124;2023-04-21T00:52:44;118349.16;;;-140.64;100.00
7930;BME280;4010;42.698;23.124;2023-04-21T00:55:13;118349.16;;;-140.64;100.00
7930;BME280;4010;42.698;23.124;2023-04-21T00:57:40;118349.16;;;-140.64;100.00
7930;BME280;4010;42.698;23.124;2023-04-21T01:00:08;118349.16;;;-140.64;100.00
7930;BME280;4010;42.698;23.124;2023-04-21T01:02:37;118349.16;;;-140.64;100.00
7930;BME280;4010;42.698;23.124;2023-04-21T01:05:05;118349.16;;;-140.64;100.00
7930;BME280;4010;42.698;23.124;2023-04-21T01:07:33;118349.16;;;-140.64;100.00
7930;BME280;4010;42.698;23.124;2023-04-21T01:10:00;118349.16;;;-140.64;100.00
7930;BME280;4010;42.698;23.124;2023-04-21T01:12:27;118349.16;;;-140.64;100.00
7930;BME280;4010;42.698;23.124;2023-04-21T01:14:54;118349.16;;;-140.64;100.00
7930;BME280;4010;42.698;23.124;2023-04-21T01:17:21;118349.16;;;-140.64;100.00
7930;BME280;4010;42.698;23.124;2023-04-21T01:19:49;118349.16;;;-140.64;100.00
7930;BME280;4010;42.698;23.124;2023-04-21T01:22:18;118349.16;;;-140.64;100.00
7930;BME280;4010;42.698;23.124;2023-04-21T01:24:47;118349.16;;;-140.64;100.00
7930;BME280;4010;42.698;23.124;2023-04-21T01:27:18;118349.16;;;-140.64;100.00
7930;BME280;4010;42.698;23.124;2023-04-21T01:29:47;118349.16;;;-140.64;100.00
7930;BME280;4010;42.698;23.124;2023-04-21T01:32:17;118349.16;;;-140.64;100.00
7930;BME280;4010;42.698;23.124;2023-04-21T01:34:44;118349.16;;;-140.64;100.00
7930;BME280;4010;42.698;23.124;2023-04-21T01:37:12;118349.16;;;-140.64;100.00
7930;BME280;4010;42.698;23.124;2023-04-21T01:39:42;118349.16;;;-140.64;100.00
7930;BME280;4010;42.698;23.124;2023-04-21T01:42:10;118349.16;;;-140.64;100.00
7930;BME280;4010;42.698;23.124;2023-04-21T01:44:37;118349.16;;;-140.64;100.00
7930;BME280;4010;42.698;23.124;2023-04-21T01:47:05;118349.16;;;-140.64;100.00
7930;BME280;4010;42.698;23.124;2023-04-21T01:49:32;118349.16;;;-140.64;100.00
7930;BME280;4010;42.698;23.124;2023-04-21T01:51:58;118349.16;;;-140.64;100.00
7930;BME280;4010;42.698;23.124;2023-04-21T01:54:25;118349.16;;;-140.64;100.00
7930;BME280;4010;42.698;23.124;2023-04-21T01:56:53;118349.16;;;-140.64;100.00
7930;BME280;4010;42.698;23.124;2023-04-21T01:59:20;118349.16;;;-140.64;100.00
7930;BME280;4010;42.698;23.124;2023-04-21T02:01:48;118349.16;;;-140.64;100.00
7930;BME280;4010;42.698;23.124;2023-04-21T02:04:15;118349.16;;;-140.64;100.00
7930;BME280;4010;42.698;23.124;2023-04-21T02:06:41;118349.16;;;-140.64;100.00
7930;BME280;4010;42.698;23.124;2023-04-21T02:09:08;118349.16;;;-140.64;100.00
7930;BME280;4010;42.698;23.124;2023-04-21T02:11:35;118349.16;;;-140.64;100.00
7930;BME280;4010;42.698;23.124;2023-04-21T02:14:03;118349.16;;;-140.64;100.00
7930;BME280;4010;42.698;23.124;2023-04-21T02:16:29;118349.16;;;-140.64;100.00
7930;BME280;4010;42.698;23.124;2023-04-21T02:18:56;118349.16;;;-140.64;100.00
7930;BME280;4010;42.698;23.124;2023-04-21T02:21:24;118349.16;;;-140.64;100.00
7930;BME280;4010;42.698;23.124;2023-04-21T02:23:51;118349.16;;;-140.64;100.00
7930;BME280;4010;42.698;23.124;2023-04-21T02:26:18;118349.16;;;-140.64;100.00
7930;BME280;4010;42.698;23.124;2023-04-21T02:28:45;118349.16;;;-140.64;100.00
7930;BME280;4010;42.698;23.124;2023-04-21T02:31:13;118349.16;;;-140.64;100.00
7930;BME280;4010;42.698;23.124;2023-04-21T02:33:40;118349.16;;;-140.64;100.00
7930;BME280;4010;42.698;23.124;2023-04-21T02:36:07;118349.16;;;-140.64;100.00
7930;BME280;4010;42.698;23.124;2023-04-21T02:38:33;118349.16;;;-140.64;100.00
7930;BME280;4010;42.698;23.124;2023-04-21T02:41:00;118349.16;;;-140.64;100.00
7930;BME280;4010;42.698;23.124;2023-04-21T02:43:27;118349.16;;;-140.64;100.00
7930;BME280;4010;42.698;23.124;2023-04-21T02:45:54;118349.16;;;-140.64;100.00
7930;BME280;4010;42.698;23.124;2023-04-21T02:48:22;118349.16;;;-140.64;100.00
7930;BME280;4010;42.698;23.124;2023-04-21T02:50:48;118349.16;;;-140.64;100.00
7930;BME280;4010;42.698;23.124;2023-04-21T02:53:17;118349.16;;;-140.64;100.00
7930;BME280;4010;42.698;23.124;2023-04-21T02:55:44;118349.16;;;-140.64;100.00
7930;BME280;4010;42.698;23.124;2023-04-21T02:58:10;118349.16;;;-140.64;100.00
7930;BME280;4010;42.698;23.124;2023-04-21T03:00:37;118349.16;;;-140.64;100.00
7930;BME280;4010;42.698;23.124;2023-04-21T03:03:04;118349.16;;;-140.64;100.00
7930;BME280;4010;42.698;23.124;2023-04-21T03:05:32;118349.16;;;-140.64;100.00
7930;BME280;4010;42.698;23.124;2023-04-21T03:07:58;118349.16;;;-140.64;100.00
7930;BME280;4010;42.698;23.124;2023-04-21T03:10:25;118349.16;;;-140.64;100.00
7930;BME280;4010;42.698;23.124;2023-04-21T03:12:52;118349.16;;;-140.64;100.00
7930;BME280;4010;42.698;23.124;2023-04-21T03:15:20;118349.16;;;-140.64;100.00
7930;BME280;4010;42.698;23.124;2023-04-21T03:17:47;118349.16;;;-140.64;100.00
7930;BME280;4010;42.698;23.124;2023-04-21T03:20:13;118349.16;;;-140.64;100.00
7930;BME280;4010;42.698;23.124;2023-04-21T03:22:41;118349.16;;;-140.64;100.00
7930;BME280;4010;42.698;23.124;2023-04-21T03:25:08;118349.16;;;-140.64;100.00
7930;BME280;4010;42.698;23.124;2023-04-21T03:27:36;118349.16;;;-140.64;100.00
7930;BME280;4010;42.698;23.124;2023-04-21T03:30:03;118349.16;;;-140.64;100.00
7930;BME280;4010;42.698;23.124;2023-04-21T03:32:30;118349.16;;;-140.64;100.00
7930;BME280;4010;42.698;23.124;2023-04-21T03:34:57;118349.16;;;-140.64;100.00
7930;BME280;4010;42.698;23.124;2023-04-21T03:37:24;118349.16;;;-140.64;100.00
7930;BME280;4010;42.698;23.124;2023-04-21T03:39:52;118349.16;;;-140.64;100.00
7930;BME280;4010;42.698;23.124;2023-04-21T03:42:18;118349.16;;;-140.64;100.00
7930;BME280;4010;42.698;23.124;2023-04-21T03:44:45;118349.16;;;-140.64;100.00
7930;BME280;4010;42.698;23.124;2023-04-21T03:47:12;118349.16;;;-140.64;100.00
7930;BME280;4010;42.698;23.124;2023-04-21T03:49:38;118349.16;;;-140.64;100.00
7930;BME280;4010;42.698;23.124;2023-04-21T03:52:05;118349.16;;;-140.64;100.00
7930;BME280;4010;42.698;23.124;2023-04-21T03:54:32;118349.16;;;-140.64;100.00
7930;BME280;4010;42.698;23.124;2023-04-21T03:57:00;118349.16;;;-140.64;100.00
7930;BME280;4010;42.698;23.124;2023-04-21T03:59:26;118349.16;;;-140.64;100.00
7930;BME280;4010;42.698;23.124;2023-04-21T04:01:53;118349.16;;;-140.64;100.00
7930;BME280;4010;42.698;23.124;2023-04-21T04:04:20;118349.16;;;-140.64;100.00
7930;BME280;4010;42.698;23.124;2023-04-21T04:06:46;118349.16;;;-140.64;100.00
7930;BME280;4010;42.698;23.124;2023-04-21T04:09:13;118349.16;;;-140.64;100.00
7930;BME280;4010;42.698;23.124;2023-04-21T04:11:40;118349.16;;;-140.64;100.00
7930;BME280;4010;42.698;23.124;2023-04-21T04:14:08;118349.16;;;-140.64;100.00
7930;BME280;4010;42.698;23.124;2023-04-21T04:16:34;118349.16;;;-140.64;100.00
7930;BME280;4010;42.698;23.124;2023-04-21T04:19:01;118349.16;;;-140.64;100.00
7930;BME280;4010;42.698;23.124;2023-04-21T04:21:28;118349.16;;;-140.64;100.00
7930;BME280;4010;42.698;23.124;2023-04-21T04:23:56;118349.16;;;-140.64;99.91
7930;BME280;4010;42.698;23.124;2023-04-21T04:26:23;118349.16;;;-140.64;100.00
7930;BME280;4010;42.698;23.124;2023-04-21T04:28:50;118349.16;;;-140.64;99.64
7930;BME280;4010;42.698;23.124;2023-04-21T04:31:18;118349.16;;;-140.64;100.00
7930;BME280;4010;42.698;23.124;2023-04-21T04:33:45;118349.16;;;-140.64;100.00
7930;BME280;4010;42.698;23.124;2023-04-21T04:36:12;118349.16;;;-140.64;100.00
7930;BME280;4010;42.698;23.124;2023-04-21T04:38:39;118349.16;;;-140.64;100.00
7930;BME280;4010;42.698;23.124;2023-04-21T04:41:06;118349.16;;;-140.64;100.00
7930;BME280;4010;42.698;23.124;2023-04-21T04:43:33;118349.16;;;-140.64;100.00
7930;BME280;4010;42.698;23.124;2023-04-21T04:46:01;118349.16;;;-140.64;100.00
7930;BME280;4010;42.698;23.124;2023-04-21T04:48:29;118349.16;;;-140.64;100.00
7930;BME280;4010;42.698;23.124;2023-04-21T04:50:55;118349.16;;;-140.64;99.84
7930;BME280;4010;42.698;23.124;2023-04-21T04:53:22;118349.16;;;-140.64;98.16
7930;BME280;4010;42.698;23.124;2023-04-21T04:55:49;118349.16;;;-140.64;96.75
7930;BME280;4010;42.698;23.124;2023-04-21T04:58:16;118349.16;;;-140.64;96.68
7930;BME280;4010;42.698;23.124;2023-04-21T05:00:42;118349.16;;;-140.64;94.27
7930;BME280;4010;42.698;23.124;2023-04-21T05:03:09;118349.16;;;-140.64;91.97
7930;BME280;4010;42.698;23.124;2023-04-21T05:05:37;118349.16;;;-140.64;90.90
7930;BME280;4010;42.698;23.124;2023-04-21T05:08:04;118349.16;;;-140.64;91.14
7930;BME280;4010;42.698;23.124;2023-04-21T05:10:31;118349.16;;;-140.64;88.33
7930;BME280;4010;42.698;23.124;2023-04-21T05:12:57;118349.16;;;-140.64;88.62
7930;BME280;4010;42.698;23.124;2023-04-21T05:15:24;118349.16;;;-140.64;86.82
7930;BME280;4010;42.698;23.124;2023-04-21T05:17:51;118349.16;;;-140.64;85.25
7930;BME280;4010;42.698;23.124;2023-04-21T05:20:17;118349.16;;;-140.64;85.54
7930;BME280;4010;42.698;23.124;2023-04-21T05:22:45;118349.16;;;-140.64;86.27
7930;BME280;4010;42.698;23.124;2023-04-21T05:25:12;118349.16;;;-140.64;88.85
7930;BME280;4010;42.698;23.124;2023-04-21T05:27:40;118349.16;;;-140.64;88.35
7930;BME280;4010;42.698;23.124;2023-04-21T05:30:07;118349.16;;;-140.64;87.14
7930;BME280;4010;42.698;23.124;2023-04-21T05:32:34;118349.16;;;-140.64;88.16
7930;BME280;4010;42.698;23.124;2023-04-21T05:35:01;118349.16;;;-140.64;86.95
7930;BME280;4010;42.698;23.124;2023-04-21T05:37:28;118349.16;;;-140.64;86.05
7930;BME280;4010;42.698;23.124;2023-04-21T05:39:56;118349.16;;;-140.64;84.67
7930;BME280;4010;42.698;23.124;2023-04-21T05:42:23;118349.16;;;-140.64;84.20
7930;BME280;4010;42.698;23.124;2023-04-21T05:44:49;118349.16;;;-140.64;76.35
7930;BME280;4010;42.698;23.124;2023-04-21T05:47:16;118349.16;;;-140.64;68.80
7930;BME280;4010;42.698;23.124;2023-04-21T05:49:42;118349.16;;;-140.64;63.21
7930;BME280;4010;42.698;23.124;2023-04-21T05:52:14;118349.16;;;-140.64;62.27
7930;BME280;4010;42.698;23.124;2023-04-21T05:54:41;118349.16;;;-140.64;58.54
7930;BME280;4010;42.698;23.124;2023-04-21T05:57:09;118349.16;;;-140.64;58.11
7930;BME280;4010;42.698;23.124;2023-04-21T05:59:35;118349.16;;;-140.64;58.61
7930;BME280;4010;42.698;23.124;2023-04-21T06:02:02;118349.16;;;-140.64;57.18
7930;BME280;4010;42.698;23.124;2023-04-21T06:04:29;118349.16;;;-140.64;59.80
7930;BME280;4010;42.698;23.124;2023-04-21T06:06:55;118349.16;;;-140.64;63.05
7930;BME280;4010;42.698;23.124;2023-04-21T06:09:22;118349.16;;;-140.64;63.58
7930;BME280;4010;42.698;23.124;2023-04-21T06:11:49;118349.16;;;-140.64;60.02
7930;BME280;4010;42.698;23.124;2023-04-21T06:14:17;118349.16;;;-140.64;58.49
7930;BME280;4010;42.698;23.124;2023-04-21T06:16:44;118349.16;;;-140.64;59.60
7930;BME280;4010;42.698;23.124;2023-04-21T06:19:10;118349.16;;;-140.64;61.66
7930;BME280;4010;42.698;23.124;2023-04-21T06:21:37;118349.16;;;-140.64;60.91
7930;BME280;4010;42.698;23.124;2023-04-21T06:24:04;118349.16;;;-140.64;61.50
7930;BME280;4010;42.698;23.124;2023-04-21T06:26:31;118349.16;;;-140.64;60.14
7930;BME280;4010;42.698;23.124;2023-04-21T06:28:57;118349.16;;;-140.64;58.34
7930;BME280;4010;42.698;23.124;2023-04-21T06:31:25;118349.16;;;-140.64;59.95
7930;BME280;4010;42.698;23.124;2023-04-21T06:33:52;118349.16;;;-140.64;58.33
7930;BME280;4010;42.698;23.124;2023-04-21T06:36:19;118349.16;;;-140.64;58.85
7930;BME280;4010;42.698;23.124;2023-04-21T06:38:47;118349.16;;;-140.64;58.86
7930;BME280;4010;42.698;23.124;2023-04-21T06:41:14;118349.16;;;-140.64;58.48
7930;BME280;4010;42.698;23.124;2023-04-21T06:43:41;118349.16;;;-140.64;56.42
7930;BME280;4010;42.698;23.124;2023-04-21T06:46:08;118349.16;;;-140.64;58.38
7930;BME280;4010;42.698;23.124;2023-04-21T06:48:36;118349.16;;;-140.64;64.88
7930;BME280;4010;42.698;23.124;2023-04-21T06:51:03;118349.16;;;-140.64;63.85
7930;BME280;4010;42.698;23.124;2023-04-21T06:53:30;118349.16;;;-140.64;62.57
7930;BME280;4010;42.698;23.124;2023-04-21T06:55:57;118349.16;;;-140.64;64.01
7930;BME280;4010;42.698;23.124;2023-04-21T06:58:24;118349.16;;;-140.64;65.27
7930;BME280;4010;42.698;23.124;2023-04-21T07:00:50;118349.16;;;-140.64;63.09
7930;BME280;4010;42.698;23.124;2023-04-21T07:03:17;118349.16;;;-140.64;65.38
7930;BME280;4010;42.698;23.124;2023-04-21T07:05:45;118349.16;;;-140.64;65.32
7930;BME280;4010;42.698;23.124;2023-04-21T07:08:12;118349.16;;;-140.64;66.87
7930;BME280;4010;42.698;23.124;2023-04-21T07:10:39;118349.16;;;-140.64;64.19
7930;BME280;4010;42.698;23.124;2023-04-21T07:13:05;118349.16;;;-140.64;59.68
7930;BME280;4010;42.698;23.124;2023-04-21T07:15:33;118349.16;;;-140.64;59.71
7930;BME280;4010;42.698;23.124;2023-04-21T07:17:59;118349.16;;;-140.64;65.31
7930;BME280;4010;42.698;23.124;2023-04-21T07:20:26;118349.16;;;-140.64;64.24
7930;BME280;4010;42.698;23.124;2023-04-21T07:22:54;118349.16;;;-140.64;64.79
7930;BME280;4010;42.698;23.124;2023-04-21T07:25:21;118349.16;;;-140.64;64.28
7930;BME280;4010;42.698;23.124;2023-04-21T07:27:47;118349.16;;;-140.64;63.21
7930;BME280;4010;42.698;23.124;2023-04-21T07:30:14;118349.16;;;-140.64;64.50
7930;BME280;4010;42.698;23.124;2023-04-21T07:32:41;118349.16;;;-140.64;59.52
7930;BME280;4010;42.698;23.124;2023-04-21T07:35:08;118349.16;;;-140.64;59.47
7930;BME280;4010;42.698;23.124;2023-04-21T07:37:35;118349.16;;;-140.64;62.52
7930;BME280;4010;42.698;23.124;2023-04-21T07:40:03;118349.16;;;-140.64;61.56
7930;BME280;4010;42.698;23.124;2023-04-21T07:42:30;118349.16;;;-140.64;64.59
7930;BME280;4010;42.698;23.124;2023-04-21T07:44:57;118349.16;;;-140.64;61.92
7930;BME280;4010;42.698;23.124;2023-04-21T07:47:25;118349.16;;;-140.64;62.55
7930;BME280;4010;42.698;23.124;2023-04-21T07:49:52;118349.16;;;-140.64;63.60
7930;BME280;4010;42.698;23.124;2023-04-21T07:52:19;118349.16;;;-140.64;62.03
7930;BME280;4010;42.698;23.124;2023-04-21T07:54:45;118349.16;;;-140.64;65.35
7930;BME280;4010;42.698;23.124;2023-04-21T07:57:13;118349.16;;;-140.64;64.97
7930;BME280;4010;42.698;23.124;2023-04-21T07:59:40;118349.16;;;-140.64;64.55
7930;BME280;4010;42.698;23.124;2023-04-21T08:02:07;118349.16;;;-140.64;65.20
7930;BME280;4010;42.698;23.124;2023-04-21T08:04:34;118349.16;;;-140.64;64.39
7930;BME280;4010;42.698;23.124;2023-04-21T08:07:00;118349.16;;;-140.64;65.97
7930;BME280;4010;42.698;23.124;2023-04-21T08:09:27;118349.16;;;-140.64;65.77
7930;BME280;4010;42.698;23.124;2023-04-21T08:11:54;118349.16;;;-140.64;63.12
7930;BME280;4010;42.698;23.124;2023-04-21T08:14:23;118349.16;;;-140.64;60.59
7930;BME280;4010;42.698;23.124;2023-04-21T08:16:51;118349.16;;;-140.64;62.17
7930;BME280;4010;42.698;23.124;2023-04-21T08:19:19;118349.16;;;-140.64;65.93
7930;BME280;4010;42.698;23.124;2023-04-21T08:21:45;118349.16;;;-140.64;65.46
7930;BME280;4010;42.698;23.124;2023-04-21T08:24:12;118349.16;;;-140.64;64.17
7930;BME280;4010;42.698;23.124;2023-04-21T08:26:39;118349.16;;;-140.64;60.93
7930;BME280;4010;42.698;23.124;2023-04-21T08:29:05;118349.16;;;-140.64;61.08
7930;BME280;4010;42.698;23.124;2023-04-21T08:31:36;118349.16;;;-140.64;57.84
7930;BME280;4010;42.698;23.124;2023-04-21T08:34:03;118349.16;;;-140.64;60.73
7930;BME280;4010;42.698;23.124;2023-04-21T08:36:29;118349.16;;;-140.64;61.00
7930;BME280;4010;42.698;23.124;2023-04-21T08:38:57;118349.16;;;-140.64;62.53
7930;BME280;4010;42.698;23.124;2023-04-21T08:41:24;118349.16;;;-140.64;61.46
7930;BME280;4010;42.698;23.124;2023-04-21T08:43:51;118349.16;;;-140.64;62.57
7930;BME280;4010;42.698;23.124;2023-04-21T08:46:18;118349.16;;;-140.64;62.27
7930;BME280;4010;42.698;23.124;2023-04-21T08:48:46;118349.16;;;-140.64;62.47
7930;BME280;4010;42.698;23.124;2023-04-21T08:51:16;118349.16;;;-140.64;65.20
7930;BME280;4010;42.698;23.124;2023-04-21T08:53:46;118349.16;;;-140.64;64.53
7930;BME280;4010;42.698;23.124;2023-04-21T08:56:12;118349.16;;;-140.64;65.03
7930;BME280;4010;42.698;23.124;2023-04-21T08:58:39;118349.16;;;-140.64;63.21
7930;BME280;4010;42.698;23.124;2023-04-21T09:01:06;118349.16;;;-140.64;62.30
7930;BME280;4010;42.698;23.124;2023-04-21T09:03:34;118349.16;;;-140.64;59.42
7930;BME280;4010;42.698;23.124;2023-04-21T09:06:03;118349.16;;;-140.64;60.00
7930;BME280;4010;42.698;23.124;2023-04-21T09:08:31;118349.16;;;-140.64;61.84
7930;BME280;4010;42.698;23.124;2023-04-21T09:10:59;118349.16;;;-140.64;60.96
7930;BME280;4010;42.698;23.124;2023-04-21T09:13:30;118349.16;;;-140.64;56.05
7930;BME280;4010;42.698;23.124;2023-04-21T09:15:56;118349.16;;;-140.64;55.67
7930;BME280;4010;42.698;23.124;2023-04-21T09:18:25;118349.16;;;-140.64;56.52
7930;BME280;4010;42.698;23.124;2023-04-21T09:21:06;118349.16;;;-140.64;58.05
7930;BME280;4010;42.698;23.124;2023-04-21T09:23:39;118349.16;;;-140.64;58.46
7930;BME280;4010;42.698;23.124;2023-04-21T09:26:07;118349.16;;;-140.64;58.76
7930;BME280;4010;42.698;23.124;2023-04-21T09:28:34;118349.16;;;-140.64;56.59
7930;BME280;4010;42.698;23.124;2023-04-21T09:31:00;118349.16;;;-140.64;52.37
7930;BME280;4010;42.698;23.124;2023-04-21T09:33:27;118349.16;;;-140.64;55.68
7930;BME280;4010;42.698;23.124;2023-04-21T09:35:54;118349.16;;;-140.64;56.86
7930;BME280;4010;42.698;23.124;2023-04-21T09:38:22;118349.16;;;-140.64;54.90
7930;BME280;4010;42.698;23.124;2023-04-21T09:40:56;118349.16;;;-140.64;53.96
7930;BME280;4010;42.698;23.124;2023-04-21T09:43:23;118349.16;;;-140.64;55.63
7930;BME280;4010;42.698;23.124;2023-04-21T09:45:50;118349.16;;;-140.64;56.32
7930;BME280;4010;42.698;23.124;2023-04-21T09:48:17;118349.16;;;-140.64;56.17
7930;BME280;4010;42.698;23.124;2023-04-21T09:50:45;118349.16;;;-140.64;51.69
7930;BME280;4010;42.698;23.124;2023-04-21T09:53:15;118349.16;;;-140.64;56.18
7930;BME280;4010;42.698;23.124;2023-04-21T09:55:46;118349.16;;;-140.64;57.70
7930;BME280;4010;42.698;23.124;2023-04-21T09:58:15;118349.16;;;-140.64;59.05
7930;BME280;4010;42.698;23.124;2023-04-21T10:00:45;118349.16;;;-140.64;58.76
7930;BME280;4010;42.698;23.124;2023-04-21T10:03:13;118349.16;;;-140.64;57.28
7930;BME280;4010;42.698;23.124;2023-04-21T10:05:41;118349.16;;;-140.64;58.61
7930;BME280;4010;42.698;23.124;2023-04-21T10:08:09;118349.16;;;-140.64;59.76
7930;BME280;4010;42.698;23.124;2023-04-21T10:10:36;118349.16;;;-140.64;57.55
7930;BME280;4010;42.698;23.124;2023-04-21T10:13:06;118349.16;;;-140.64;57.41
7930;BME280;4010;42.698;23.124;2023-04-21T10:15:34;118349.16;;;-140.64;57.02
7930;BME280;4010;42.698;23.124;2023-04-21T10:18:11;118349.16;;;-140.64;57.50
7930;BME280;4010;42.698;23.124;2023-04-21T10:20:50;118349.16;;;-140.64;50.03
7930;BME280;4010;42.698;23.124;2023-04-21T10:23:32;118349.16;;;-140.64;47.92
7930;BME280;4010;42.698;23.124;2023-04-21T10:26:09;118349.16;;;-140.64;47.68
7930;BME280;4010;42.698;23.124;2023-04-21T10:28:46;118349.16;;;-140.64;49.20
7930;BME280;4010;42.698;23.124;2023-04-21T10:31:27;118349.16;;;-140.64;51.78
7930;BME280;4010;42.698;23.124;2023-04-21T10:34:28;118349.16;;;-140.64;51.78
7930;BME280;4010;42.698;23.124;2023-04-21T10:37:11;118349.16;;;-140.64;51.13
7930;BME280;4010;42.698;23.124;2023-04-21T10:39:58;118349.16;;;-140.64;50.88
7930;BME280;4010;42.698;23.124;2023-04-21T10:42:27;118349.16;;;-140.64;50.87
7930;BME280;4010;42.698;23.124;2023-04-21T10:45:08;118349.16;;;-140.64;50.12
7930;BME280;4010;42.698;23.124;2023-04-21T10:47:38;118349.16;;;-140.64;51.98
7930;BME280;4010;42.698;23.124;2023-04-21T10:50:21;118349.16;;;-140.64;50.93
7930;BME280;4010;42.698;23.124;2023-04-21T10:52:56;118349.16;;;-140.64;51.92
7930;BME280;4010;42.698;23.124;2023-04-21T10:55:28;118349.16;;;-140.64;52.58
7930;BME280;4010;42.698;23.124;2023-04-21T10:57:55;118349.16;;;-140.64;52.70
7930;BME280;4010;42.698;23.124;2023-04-21T11:00:26;118349.16;;;-140.64;52.15
7930;BME280;4010;42.698;23.124;2023-04-21T11:02:55;118349.16;;;-140.64;51.94
7930;BME280;4010;42.698;23.124;2023-04-21T11:05:29;118349.16;;;-140.64;50.46
7930;BME280;4010;42.698;23.124;2023-04-21T11:08:10;118349.16;;;-140.64;51.49
7930;BME280;4010;42.698;23.124;2023-04-21T11:10:51;118349.16;;;-140.64;51.21
7930;BME280;4010;42.698;23.124;2023-04-21T11:13:23;118349.16;;;-140.64;50.83
7930;BME280;4010;42.698;23.124;2023-04-21T11:15:59;118349.16;;;-140.64;51.58
7930;BME280;4010;42.698;23.124;2023-04-21T11:18:43;118349.16;;;-140.64;51.22
7930;BME280;4010;42.698;23.124;2023-04-21T11:21:12;118349.16;;;-140.64;49.32
7930;BME280;4010;42.698;23.124;2023-04-21T11:23:47;118349.16;;;-140.64;51.16
7930;BME280;4010;42.698;23.124;2023-04-21T11:26:14;118349.16;;;-140.64;51.04
7930;BME280;4010;42.698;23.124;2023-04-21T11:28:41;118349.16;;;-140.64;50.84
7930;BME280;4010;42.698;23.124;2023-04-21T11:31:09;118349.16;;;-140.64;51.85
7930;BME280;4010;42.698;23.124;2023-04-21T11:33:37;118349.16;;;-140.64;51.24
7930;BME280;4010;42.698;23.124;2023-04-21T11:36:04;118349.16;;;-140.64;50.67
7930;BME280;4010;42.698;23.124;2023-04-21T11:38:38;118349.16;;;-140.64;50.38
7930;BME280;4010;42.698;23.124;2023-04-21T11:41:06;118349.16;;;-140.64;50.81
7930;BME280;4010;42.698;23.124;2023-04-21T11:43:33;118349.16;;;-140.64;50.52
7930;BME280;4010;42.698;23.124;2023-04-21T11:46:16;118349.16;;;-140.64;50.45
7930;BME280;4010;42.698;23.124;2023-04-21T11:48:44;118349.16;;;-140.64;50.29
7930;BME280;4010;42.698;23.124;2023-04-21T11:51:15;118349.16;;;-140.64;50.74
7930;BME280;4010;42.698;23.124;2023-04-21T11:53:43;118349.16;;;-140.64;50.43
7930;BME280;4010;42.698;23.124;2023-04-21T11:56:16;118349.16;;;-140.64;49.71
7930;BME280;4010;42.698;23.124;2023-04-21T11:58:43;118349.16;;;-140.64;52.10
7930;BME280;4010;42.698;23.124;2023-04-21T12:01:10;118349.16;;;-140.64;48.13
7930;BME280;4010;42.698;23.124;2023-04-21T12:03:38;118349.16;;;-140.64;48.23
7930;BME280;4010;42.698;23.124;2023-04-21T12:06:05;118349.16;;;-140.64;49.61
7930;BME280;4010;42.698;23.124;2023-04-21T12:08:32;118349.16;;;-140.64;45.49
7930;BME280;4010;42.698;23.124;2023-04-21T12:11:01;118349.16;;;-140.64;46.76
7930;BME280;4010;42.698;23.124;2023-04-21T12:13:28;118349.16;;;-140.64;47.23
7930;BME280;4010;42.698;23.124;2023-04-21T12:15:56;118349.16;;;-140.64;47.80
7930;BME280;4010;42.698;23.124;2023-04-21T12:18:26;118349.16;;;-140.64;49.28
7930;BME280;4010;42.698;23.124;2023-04-21T12:20:54;118349.16;;;-140.64;49.92
7930;BME280;4010;42.698;23.124;2023-04-21T12:23:21;118349.16;;;-140.64;48.58
7930;BME280;4010;42.698;23.124;2023-04-21T12:25:47;118349.16;;;-140.64;47.52
7930;BME280;4010;42.698;23.124;2023-04-21T12:28:15;118349.16;;;-140.64;49.48
7930;BME280;4010;42.698;23.124;2023-04-21T12:30:43;118349.16;;;-140.64;46.17
7930;BME280;4010;42.698;23.124;2023-04-21T12:33:12;118349.16;;;-140.64;46.10
7930;BME280;4010;42.698;23.124;2023-04-21T12:35:40;118349.16;;;-140.64;46.67
7930;BME280;4010;42.698;23.124;2023-04-21T12:38:08;118349.16;;;-140.64;47.80
7930;BME280;4010;42.698;23.124;2023-04-21T12:40:35;118349.16;;;-140.64;50.33